sensor_id;sensor_type;location;lat;lon;timestamp;temperature;humidity
72865;DHT22;61000;48.120;11.548;2022-12-20T00:00:05;1.60;99.90
72865;DHT22;61000;48.120;11.548;2022-12-20T00:02:32;1.60;99.90
72865;DHT22;61000;48.120;11.548;2022-12-20T00:04:59;1.70;99.90
72865;DHT22;61000;48.120;11.548;2022-12-20T00:07:26;1.60;99.90
72865;DHT22;61000;48.120;11.548;2022-12-20T00:09:54;1.70;99.90
72865;DHT22;61000;48.120;11.548;2022-12-20T00:12:21;1.70;99.90
72865;DHT22;61000;48.120;11.548;2022-12-20T00:14:48;1.60;99.90
72865;DHT22;61000;48.120;11.548;2022-12-20T00:17:15;1.60;99.90
72865;DHT22;61000;48.120;11.548;2022-12-20T00:19:42;1.60;99.90
72865;DHT22;61000;48.120;11.548;2022-12-20T00:22:09;1.60;99.90
72865;DHT22;61000;48.120;11.548;2022-12-20T00:24:36;1.60;99.90
72865;DHT22;61000;48.120;11.548;2022-12-20T00:27:04;1.60;99.90
72865;DHT22;61000;48.120;11.548;2022-12-20T00:29:31;1.60;99.90
72865;DHT22;61000;48.120;11.548;2022-12-20T00:31:58;1.20;99.90
72865;DHT22;61000;48.120;11.548;2022-12-20T00:34:25;1.70;99.90
72865;DHT22;61000;48.120;11.548;2022-12-20T00:36:52;1.70;99.90
72865;DHT22;61000;48.120;11.548;2022-12-20T00:39:19;1.80;99.90
72865;DHT22;61000;48.120;11.548;2022-12-20T00:41:45;1.70;99.90
72865;DHT22;61000;48.120;11.548;2022-12-20T00:44:14;1.80;99.90
72865;DHT22;61000;48.120;11.548;2022-12-20T00:46:41;1.70;99.90
72865;DHT22;61000;48.120;11.548;2022-12-20T00:49:08;1.70;99.90
72865;DHT22;61000;48.120;11.548;2022-12-20T00:51:35;1.80;99.90
72865;DHT22;61000;48.120;11.548;2022-12-20T00:54:02;1.80;99.90
72865;DHT22;61000;48.120;11.548;2022-12-20T00:56:29;1.80;99.90
72865;DHT22;61000;48.120;11.548;2022-12-20T00:58:57;1.80;99.90
72865;DHT22;61000;48.120;11.548;2022-12-20T01:01:27;1.30;99.90
72865;DHT22;61000;48.120;11.548;2022-12-20T01:03:55;1.70;99.90
72865;DHT22;61000;48.120;11.548;2022-12-20T01:06:23;1.80;99.90
72865;DHT22;61000;48.120;11.548;2022-12-20T01:08:50;1.80;99.90
72865;DHT22;61000;48.120;11.548;2022-12-20T01:11:19;1.80;99.90
72865;DHT22;61000;48.120;11.548;2022-12-20T01:13:48;1.70;99.90
72865;DHT22;61000;48.120;11.548;2022-12-20T01:16:18;1.80;99.90
72865;DHT22;61000;48.120;11.548;2022-12-20T01:18:48;1.70;99.90
72865;DHT22;61000;48.120;11.548;2022-12-20T01:21:17;2.00;99.90
72865;DHT22;61000;48.120;11.548;2022-12-20T01:23:44;1.80;99.90
72865;DHT22;61000;48.120;11.548;2022-12-20T01:26:18;1.80;99.90
72865;DHT22;61000;48.120;11.548;2022-12-20T01:28:47;1.80;99.90
72865;DHT22;61000;48.120;11.548;2022-12-20T01:31:17;1.90;99.90
72865;DHT22;61000;48.120;11.548;2022-12-20T01:33:47;1.90;99.90
72865;DHT22;61000;48.120;11.548;2022-12-20T01:36:16;1.90;99.90
72865;DHT22;61000;48.120;11.548;2022-12-20T01:38:44;1.90;99.90
72865;DHT22;61000;48.120;11.548;2022-12-20T01:41:14;2.10;99.90
72865;DHT22;61000;48.120;11.548;2022-12-20T01:43:48;2.00;99.90
72865;DHT22;61000;48.120;11.548;2022-12-20T01:46:16;2.00;99.90
72865;DHT22;61000;48.120;11.548;2022-12-20T01:48:47;2.10;99.90
72865;DHT22;61000;48.120;11.548;2022-12-20T01:51:15;2.10;99.90
72865;DHT22;61000;48.120;11.548;2022-12-20T01:53:43;2.10;99.90
72865;DHT22;61000;48.120;11.548;2022-12-20T01:56:10;1.90;99.90
72865;DHT22;61000;48.120;11.548;2022-12-20T01:58:38;2.20;99.90
72865;DHT22;61000;48.120;11.548;2022-12-20T02:01:06;2.10;99.90
72865;DHT22;61000;48.120;11.548;2022-12-20T02:03:32;2.20;99.90
72865;DHT22;61000;48.120;11.548;2022-12-20T02:06:14;2.20;99.90
72865;DHT22;61000;48.120;11.548;2022-12-20T02:08:42;2.30;99.90
72865;DHT22;61000;48.120;11.548;2022-12-20T02:11:22;2.20;99.90
72865;DHT22;61000;48.120;11.548;2022-12-20T02:13:56;2.20;99.90
72865;DHT22;61000;48.120;11.548;2022-12-20T02:16:29;2.30;99.90
72865;DHT22;61000;48.120;11.548;2022-12-20T02:19:03;2.30;99.90
72865;DHT22;61000;48.120;11.548;2022-12-20T02:21:38;2.30;99.90
72865;DHT22;61000;48.120;11.548;2022-12-20T02:24:32;2.20;99.90
72865;DHT22;61000;48.120;11.548;2022-12-20T02:30:08;2.40;99.90
72865;DHT22;61000;48.120;11.548;2022-12-20T02:32:39;2.40;99.90
72865;DHT22;61000;48.120;11.548;2022-12-20T02:35:10;2.40;99.90
72865;DHT22;61000;48.120;11.548;2022-12-20T02:37:47;2.40;99.90
72865;DHT22;61000;48.120;11.548;2022-12-20T02:40:17;2.50;99.90
72865;DHT22;61000;48.120;11.548;2022-12-20T02:42:45;2.40;99.90
72865;DHT22;61000;48.120;11.548;2022-12-20T02:45:16;2.40;99.90
72865;DHT22;61000;48.120;11.548;2022-12-20T02:47:48;2.50;99.90
72865;DHT22;61000;48.120;11.548;2022-12-20T02:50:20;2.50;99.90
72865;DHT22;61000;48.120;11.548;2022-12-20T02:52:48;2.50;99.90
72865;DHT22;61000;48.120;11.548;2022-12-20T02:55:16;2.50;99.90
72865;DHT22;61000;48.120;11.548;2022-12-20T02:57:48;2.50;99.90
72865;DHT22;61000;48.120;11.548;2022-12-20T03:00:20;2.50;99.90
72865;DHT22;61000;48.120;11.548;2022-12-20T03:02:49;2.50;99.90
72865;DHT22;61000;48.120;11.548;2022-12-20T03:05:42;2.50;99.90
72865;DHT22;61000;48.120;11.548;2022-12-20T03:08:09;2.50;99.90
72865;DHT22;61000;48.120;11.548;2022-12-20T03:10:37;2.50;99.90
72865;DHT22;61000;48.120;11.548;2022-12-20T03:13:04;2.50;99.90
72865;DHT22;61000;48.120;11.548;2022-12-20T03:15:34;2.50;99.90
72865;DHT22;61000;48.120;11.548;2022-12-20T03:18:03;2.50;99.90
72865;DHT22;61000;48.120;11.548;2022-12-20T03:20:30;2.50;99.90
72865;DHT22;61000;48.120;11.548;2022-12-20T03:22:56;2.50;99.90
72865;DHT22;61000;48.120;11.548;2022-12-20T03:25:23;2.50;99.90
72865;DHT22;61000;48.120;11.548;2022-12-20T03:27:50;2.60;99.90
72865;DHT22;61000;48.120;11.548;2022-12-20T03:30:18;2.50;99.90
72865;DHT22;61000;48.120;11.548;2022-12-20T03:32:46;2.50;99.90
72865;DHT22;61000;48.120;11.548;2022-12-20T03:35:14;2.60;99.90
72865;DHT22;61000;48.120;11.548;2022-12-20T03:37:41;2.60;99.90
72865;DHT22;61000;48.120;11.548;2022-12-20T03:40:10;2.60;99.90
72865;DHT22;61000;48.120;11.548;2022-12-20T03:42:37;2.70;99.90
72865;DHT22;61000;48.120;11.548;2022-12-20T03:45:05;2.60;99.90
72865;DHT22;61000;48.120;11.548;2022-12-20T03:47:33;2.70;99.90
72865;DHT22;61000;48.120;11.548;2022-12-20T03:50:03;2.70;99.90
72865;DHT22;61000;48.120;11.548;2022-12-20T03:52:33;2.80;99.90
72865;DHT22;61000;48.120;11.548;2022-12-20T03:55:00;2.80;99.90
72865;DHT22;61000;48.120;11.548;2022-12-20T03:57:38;2.80;99.90
72865;DHT22;61000;48.120;11.548;2022-12-20T04:00:19;2.90;99.90
72865;DHT22;61000;48.120;11.548;2022-12-20T04:02:49;2.80;99.90
72865;DHT22;61000;48.120;11.548;2022-12-20T04:05:18;2.80;99.90
72865;DHT22;61000;48.120;11.548;2022-12-20T04:07:45;2.80;99.90
72865;DHT22;61000;48.120;11.548;2022-12-20T04:10:12;2.80;99.90
72865;DHT22;61000;48.120;11.548;2022-12-20T04:12:40;2.80;99.90
72865;DHT22;61000;48.120;11.548;2022-12-20T04:15:10;2.80;99.90
72865;DHT22;61000;48.120;11.548;2022-12-20T04:17:39;2.80;99.90
72865;DHT22;61000;48.120;11.548;2022-12-20T04:20:09;2.80;99.90
72865;DHT22;61000;48.120;11.548;2022-12-20T04:22:50;2.70;99.90
72865;DHT22;61000;48.120;11.548;2022-12-20T04:25:19;2.70;99.90
72865;DHT22;61000;48.120;11.548;2022-12-20T04:27:46;2.90;99.90
72865;DHT22;61000;48.120;11.548;2022-12-20T04:30:14;2.70;99.90
72865;DHT22;61000;48.120;11.548;2022-12-20T04:32:41;2.80;99.90
72865;DHT22;61000;48.120;11.548;2022-12-20T04:35:09;2.70;99.90
72865;DHT22;61000;48.120;11.548;2022-12-20T04:37:39;2.70;99.90
72865;DHT22;61000;48.120;11.548;2022-12-20T04:40:09;2.70;99.90
72865;DHT22;61000;48.120;11.548;2022-12-20T04:42:52;2.70;99.90
72865;DHT22;61000;48.120;11.548;2022-12-20T04:45:19;2.70;99.90
72865;DHT22;61000;48.120;11.548;2022-12-20T04:47:47;2.70;99.90
72865;DHT22;61000;48.120;11.548;2022-12-20T04:50:17;2.70;99.90
72865;DHT22;61000;48.120;11.548;2022-12-20T04:52:44;2.70;99.90
72865;DHT22;61000;48.120;11.548;2022-12-20T04:55:35;2.70;99.90
72865;DHT22;61000;48.120;11.548;2022-12-20T04:58:03;2.70;99.90
72865;DHT22;61000;48.120;11.548;2022-12-20T05:00:30;2.70;99.90
72865;DHT22;61000;48.120;11.548;2022-12-20T05:03:05;2.80;99.90
72865;DHT22;61000;48.120;11.548;2022-12-20T05:05:32;2.70;99.90
72865;DHT22;61000;48.120;11.548;2022-12-20T05:07:59;2.70;99.90
72865;DHT22;61000;48.120;11.548;2022-12-20T05:10:27;2.70;99.90
72865;DHT22;61000;48.120;11.548;2022-12-20T05:13:00;2.70;99.90
72865;DHT22;61000;48.120;11.548;2022-12-20T05:15:34;2.60;99.90
72865;DHT22;61000;48.120;11.548;2022-12-20T05:18:01;2.70;99.90
72865;DHT22;61000;48.120;11.548;2022-12-20T05:20:38;2.70;99.90
72865;DHT22;61000;48.120;11.548;2022-12-20T05:23:06;2.70;99.90
72865;DHT22;61000;48.120;11.548;2022-12-20T05:26:10;2.70;99.90
72865;DHT22;61000;48.120;11.548;2022-12-20T05:28:44;2.70;99.90
72865;DHT22;61000;48.120;11.548;2022-12-20T05:31:11;2.80;99.90
72865;DHT22;61000;48.120;11.548;2022-12-20T05:33:38;2.80;99.90
72865;DHT22;61000;48.120;11.548;2022-12-20T05:36:07;2.70;99.90
72865;DHT22;61000;48.120;11.548;2022-12-20T05:38:34;2.70;99.90
72865;DHT22;61000;48.120;11.548;2022-12-20T05:41:04;2.70;99.90
72865;DHT22;61000;48.120;11.548;2022-12-20T05:43:32;2.70;99.90
72865;DHT22;61000;48.120;11.548;2022-12-20T05:46:00;2.70;99.90
72865;DHT22;61000;48.120;11.548;2022-12-20T05:48:37;2.70;99.90
72865;DHT22;61000;48.120;11.548;2022-12-20T05:51:04;2.70;99.90
72865;DHT22;61000;48.120;11.548;2022-12-20T05:53:33;2.80;99.90
72865;DHT22;61000;48.120;11.548;2022-12-20T05:56:03;2.70;99.90
72865;DHT22;61000;48.120;11.548;2022-12-20T05:58:35;2.80;99.90
72865;DHT22;61000;48.120;11.548;2022-12-20T06:01:07;2.70;99.90
72865;DHT22;61000;48.120;11.548;2022-12-20T06:03:37;2.80;99.90
72865;DHT22;61000;48.120;11.548;2022-12-20T06:06:08;2.70;99.90
72865;DHT22;61000;48.120;11.548;2022-12-20T06:08:35;2.60;99.90
72865;DHT22;61000;48.120;11.548;2022-12-20T06:11:06;2.60;99.90
72865;DHT22;61000;48.120;11.548;2022-12-20T06:13:43;2.80;99.90
72865;DHT22;61000;48.120;11.548;2022-12-20T06:16:11;2.60;99.90
72865;DHT22;61000;48.120;11.548;2022-12-20T06:18:38;2.60;99.90
72865;DHT22;61000;48.120;11.548;2022-12-20T06:21:05;2.60;99.90
72865;DHT22;61000;48.120;11.548;2022-12-20T06:23:32;2.70;99.90
72865;DHT22;61000;48.120;11.548;2022-12-20T06:26:08;2.70;99.90
72865;DHT22;61000;48.120;11.548;2022-12-20T06:28:41;2.70;99.90
72865;DHT22;61000;48.120;11.548;2022-12-20T06:31:09;2.70;99.90
72865;DHT22;61000;48.120;11.548;2022-12-20T06:33:43;2.80;99.90
72865;DHT22;61000;48.120;11.548;2022-12-20T06:36:13;2.80;99.90
72865;DHT22;61000;48.120;11.548;2022-12-20T06:38:40;2.80;99.90
72865;DHT22;61000;48.120;11.548;2022-12-20T06:41:07;2.80;99.90
72865;DHT22;61000;48.120;11.548;2022-12-20T06:43:35;2.80;99.90
72865;DHT22;61000;48.120;11.548;2022-12-20T06:46:01;2.90;99.90
72865;DHT22;61000;48.120;11.548;2022-12-20T06:48:28;2.90;99.90
72865;DHT22;61000;48.120;11.548;2022-12-20T06:50:57;2.90;99.90
72865;DHT22;61000;48.120;11.548;2022-12-20T06:53:26;3.10;99.90
72865;DHT22;61000;48.120;11.548;2022-12-20T06:55:53;3.00;99.90
72865;DHT22;61000;48.120;11.548;2022-12-20T06:58:20;3.20;99.90
72865;DHT22;61000;48.120;11.548;2022-12-20T07:00:48;3.00;99.90
72865;DHT22;61000;48.120;11.548;2022-12-20T07:03:15;3.00;99.90
72865;DHT22;61000;48.120;11.548;2022-12-20T07:05:41;3.20;99.90
72865;DHT22;61000;48.120;11.548;2022-12-20T07:08:10;3.10;99.90
72865;DHT22;61000;48.120;11.548;2022-12-20T07:10:37;3.10;99.90
72865;DHT22;61000;48.120;11.548;2022-12-20T07:13:03;3.40;99.90
72865;DHT22;61000;48.120;11.548;2022-12-20T07:15:30;3.20;99.90
72865;DHT22;61000;48.120;11.548;2022-12-20T07:17:57;3.30;99.90
72865;DHT22;61000;48.120;11.548;2022-12-20T07:20:24;3.30;99.90
72865;DHT22;61000;48.120;11.548;2022-12-20T07:22:51;3.30;99.90
72865;DHT22;61000;48.120;11.548;2022-12-20T07:25:19;3.40;99.90
72865;DHT22;61000;48.120;11.548;2022-12-20T07:27:46;3.40;99.90
72865;DHT22;61000;48.120;11.548;2022-12-20T07:30:14;3.50;99.90
72865;DHT22;61000;48.120;11.548;2022-12-20T07:32:41;3.50;99.90
72865;DHT22;61000;48.120;11.548;2022-12-20T07:35:09;3.60;99.90
72865;DHT22;61000;48.120;11.548;2022-12-20T07:37:36;3.50;99.90
72865;DHT22;61000;48.120;11.548;2022-12-20T07:40:05;3.50;99.90
72865;DHT22;61000;48.120;11.548;2022-12-20T07:42:33;3.50;99.90
72865;DHT22;61000;48.120;11.548;2022-12-20T07:45:00;3.50;99.90
72865;DHT22;61000;48.120;11.548;2022-12-20T07:47:28;3.60;99.90
72865;DHT22;61000;48.120;11.548;2022-12-20T07:49:54;4.10;99.90
72865;DHT22;61000;48.120;11.548;2022-12-20T07:52:22;3.60;99.90
72865;DHT22;61000;48.120;11.548;2022-12-20T07:54:55;3.60;99.90
72865;DHT22;61000;48.120;11.548;2022-12-20T07:57:28;3.70;99.90
72865;DHT22;61000;48.120;11.548;2022-12-20T07:59:58;3.60;99.90
72865;DHT22;61000;48.120;11.548;2022-12-20T08:02:30;3.70;99.90
72865;DHT22;61000;48.120;11.548;2022-12-20T08:04:58;3.70;99.90
72865;DHT22;61000;48.120;11.548;2022-12-20T08:07:26;3.60;99.90
72865;DHT22;61000;48.120;11.548;2022-12-20T08:09:54;3.70;99.90
72865;DHT22;61000;48.120;11.548;2022-12-20T08:12:21;3.70;99.90
72865;DHT22;61000;48.120;11.548;2022-12-20T08:14:49;3.80;99.90
72865;DHT22;61000;48.120;11.548;2022-12-20T08:17:21;3.80;99.90
72865;DHT22;61000;48.120;11.548;2022-12-20T08:19:48;3.80;99.90
72865;DHT22;61000;48.120;11.548;2022-12-20T08:22:16;3.90;99.90
72865;DHT22;61000;48.120;11.548;2022-12-20T08:24:43;3.90;99.90
72865;DHT22;61000;48.120;11.548;2022-12-20T08:27:10;4.00;99.90
72865;DHT22;61000;48.120;11.548;2022-12-20T08:29:37;4.00;99.90
72865;DHT22;61000;48.120;11.548;2022-12-20T08:32:04;4.00;99.90
72865;DHT22;61000;48.120;11.548;2022-12-20T08:34:32;4.00;99.90
72865;DHT22;61000;48.120;11.548;2022-12-20T08:36:59;4.10;99.90
72865;DHT22;61000;48.120;11.548;2022-12-20T08:39:26;4.10;99.90
72865;DHT22;61000;48.120;11.548;2022-12-20T08:41:52;4.20;99.90
72865;DHT22;61000;48.120;11.548;2022-12-20T08:44:19;4.20;99.90
72865;DHT22;61000;48.120;11.548;2022-12-20T08:46:46;4.20;99.90
72865;DHT22;61000;48.120;11.548;2022-12-20T08:49:13;4.20;99.90
72865;DHT22;61000;48.120;11.548;2022-12-20T08:51:41;4.20;99.90
72865;DHT22;61000;48.120;11.548;2022-12-20T08:54:08;4.20;99.90
72865;DHT22;61000;48.120;11.548;2022-12-20T08:56:35;4.30;99.90
72865;DHT22;61000;48.120;11.548;2022-12-20T08:59:02;4.20;99.90
72865;DHT22;61000;48.120;11.548;2022-12-20T09:01:29;4.30;99.90
72865;DHT22;61000;48.120;11.548;2022-12-20T09:03:58;4.30;99.90
72865;DHT22;61000;48.120;11.548;2022-12-20T09:06:25;4.40;99.90
72865;DHT22;61000;48.120;11.548;2022-12-20T09:08:53;4.30;99.90
72865;DHT22;61000;48.120;11.548;2022-12-20T09:11:22;4.40;99.90
72865;DHT22;61000;48.120;11.548;2022-12-20T09:13:51;4.40;99.90
72865;DHT22;61000;48.120;11.548;2022-12-20T09:16:20;4.50;99.90
72865;DHT22;61000;48.120;11.548;2022-12-20T09:23:42;6.30;99.90
72865;DHT22;61000;48.120;11.548;2022-12-20T09:26:12;4.70;99.90
72865;DHT22;61000;48.120;11.548;2022-12-20T09:28:39;4.70;99.90
72865;DHT22;61000;48.120;11.548;2022-12-20T09:31:09;4.70;99.90
72865;DHT22;61000;48.120;11.548;2022-12-20T09:33:36;4.70;99.90
72865;DHT22;61000;48.120;11.548;2022-12-20T09:36:04;4.80;99.90
72865;DHT22;61000;48.120;11.548;2022-12-20T09:38:31;4.80;99.90
72865;DHT22;61000;48.120;11.548;2022-12-20T09:41:02;4.80;99.90
72865;DHT22;61000;48.120;11.548;2022-12-20T09:43:31;4.90;99.90
72865;DHT22;61000;48.120;11.548;2022-12-20T09:46:00;4.90;99.90
72865;DHT22;61000;48.120;11.548;2022-12-20T09:48:30;5.00;99.90
72865;DHT22;61000;48.120;11.548;2022-12-20T09:51:09;5.00;99.90
72865;DHT22;61000;48.120;11.548;2022-12-20T09:53:45;5.00;99.90
72865;DHT22;61000;48.120;11.548;2022-12-20T09:56:20;5.10;99.90
72865;DHT22;61000;48.120;11.548;2022-12-20T09:59:00;5.20;99.90
72865;DHT22;61000;48.120;11.548;2022-12-20T10:01:29;5.20;99.90
72865;DHT22;61000;48.120;11.548;2022-12-20T10:03:58;5.30;99.90
72865;DHT22;61000;48.120;11.548;2022-12-20T10:06:34;5.40;99.90
72865;DHT22;61000;48.120;11.548;2022-12-20T10:09:08;5.40;99.90
72865;DHT22;61000;48.120;11.548;2022-12-20T10:11:44;5.40;99.90
72865;DHT22;61000;48.120;11.548;2022-12-20T10:14:43;5.50;99.90
72865;DHT22;61000;48.120;11.548;2022-12-20T10:17:16;5.60;99.90
72865;DHT22;61000;48.120;11.548;2022-12-20T10:20:02;5.90;99.90
72865;DHT22;61000;48.120;11.548;2022-12-20T10:22:32;5.70;99.90
72865;DHT22;61000;48.120;11.548;2022-12-20T10:25:14;5.70;99.90
72865;DHT22;61000;48.120;11.548;2022-12-20T10:27:43;5.80;99.90
72865;DHT22;61000;48.120;11.548;2022-12-20T10:30:15;5.90;99.90
72865;DHT22;61000;48.120;11.548;2022-12-20T10:32:46;5.90;99.90
72865;DHT22;61000;48.120;11.548;2022-12-20T10:35:23;6.10;99.90
72865;DHT22;61000;48.120;11.548;2022-12-20T10:37:59;6.10;99.90
72865;DHT22;61000;48.120;11.548;2022-12-20T10:40:30;6.20;99.90
72865;DHT22;61000;48.120;11.548;2022-12-20T10:42:57;6.30;99.90
72865;DHT22;61000;48.120;11.548;2022-12-20T10:45:32;6.30;99.90
72865;DHT22;61000;48.120;11.548;2022-12-20T10:48:01;6.50;99.90
72865;DHT22;61000;48.120;11.548;2022-12-20T10:50:31;6.40;99.90
72865;DHT22;61000;48.120;11.548;2022-12-20T10:53:22;6.50;99.90
72865;DHT22;61000;48.120;11.548;2022-12-20T10:55:50;6.50;99.90
72865;DHT22;61000;48.120;11.548;2022-12-20T10:58:28;6.60;99.90
72865;DHT22;61000;48.120;11.548;2022-12-20T11:01:05;6.60;99.90
72865;DHT22;61000;48.120;11.548;2022-12-20T11:03:49;6.60;99.90
72865;DHT22;61000;48.120;11.548;2022-12-20T11:06:17;6.60;99.90
72865;DHT22;61000;48.120;11.548;2022-12-20T11:08:45;6.70;99.90
72865;DHT22;61000;48.120;11.548;2022-12-20T11:11:15;6.70;99.90
72865;DHT22;61000;48.120;11.548;2022-12-20T11:13:44;6.80;99.90
72865;DHT22;61000;48.120;11.548;2022-12-20T11:16:28;6.80;99.90
72865;DHT22;61000;48.120;11.548;2022-12-20T11:19:23;6.90;99.90
72865;DHT22;61000;48.120;11.548;2022-12-20T11:22:00;6.90;99.90
72865;DHT22;61000;48.120;11.548;2022-12-20T11:24:36;7.10;99.90
72865;DHT22;61000;48.120;11.548;2022-12-20T11:27:15;7.00;99.90
72865;DHT22;61000;48.120;11.548;2022-12-20T11:30:01;7.00;99.90
72865;DHT22;61000;48.120;11.548;2022-12-20T11:32:39;7.10;99.90
72865;DHT22;61000;48.120;11.548;2022-12-20T11:35:11;7.30;99.90
72865;DHT22;61000;48.120;11.548;2022-12-20T11:37:47;7.20;99.90
72865;DHT22;61000;48.120;11.548;2022-12-20T11:40:22;7.40;99.90
72865;DHT22;61000;48.120;11.548;2022-12-20T11:43:03;7.30;99.90
72865;DHT22;61000;48.120;11.548;2022-12-20T11:45:39;7.20;99.90
72865;DHT22;61000;48.120;11.548;2022-12-20T11:48:36;7.20;99.90
72865;DHT22;61000;48.120;11.548;2022-12-20T11:51:17;7.30;99.90
72865;DHT22;61000;48.120;11.548;2022-12-20T11:53:51;7.30;99.90
72865;DHT22;61000;48.120;11.548;2022-12-20T11:56:22;7.30;99.90
72865;DHT22;61000;48.120;11.548;2022-12-20T11:58:54;7.40;99.90
72865;DHT22;61000;48.120;11.548;2022-12-20T12:01:26;7.40;99.90
72865;DHT22;61000;48.120;11.548;2022-12-20T12:04:03;7.40;99.90
72865;DHT22;61000;48.120;11.548;2022-12-20T12:06:34;7.50;99.90
72865;DHT22;61000;48.120;11.548;2022-12-20T12:09:10;7.50;99.90
72865;DHT22;61000;48.120;11.548;2022-12-20T12:11:43;7.50;99.90
72865;DHT22;61000;48.120;11.548;2022-12-20T12:14:26;7.50;99.90
72865;DHT22;61000;48.120;11.548;2022-12-20T12:16:56;7.50;99.90
72865;DHT22;61000;48.120;11.548;2022-12-20T12:19:28;7.50;99.90
72865;DHT22;61000;48.120;11.548;2022-12-20T12:21:58;7.50;99.90
72865;DHT22;61000;48.120;11.548;2022-12-20T12:24:31;7.50;99.90
72865;DHT22;61000;48.120;11.548;2022-12-20T12:27:01;7.40;99.90
72865;DHT22;61000;48.120;11.548;2022-12-20T12:29:29;7.50;99.90
72865;DHT22;61000;48.120;11.548;2022-12-20T12:31:59;7.50;99.90
72865;DHT22;61000;48.120;11.548;2022-12-20T12:34:50;7.50;99.90
72865;DHT22;61000;48.120;11.548;2022-12-20T12:37:38;7.50;99.90
72865;DHT22;61000;48.120;11.548;2022-12-20T12:40:33;7.50;99.90
72865;DHT22;61000;48.120;11.548;2022-12-20T12:43:22;7.50;99.90
72865;DHT22;61000;48.120;11.548;2022-12-20T12:45:52;7.50;99.90
72865;DHT22;61000;48.120;11.548;2022-12-20T12:48:24;7.50;99.90
72865;DHT22;61000;48.120;11.548;2022-12-20T12:50:56;7.50;99.90
72865;DHT22;61000;48.120;11.548;2022-12-20T12:53:30;7.40;99.90
72865;DHT22;61000;48.120;11.548;2022-12-20T12:55:58;7.40;99.90
72865;DHT22;61000;48.120;11.548;2022-12-20T12:58:33;7.40;99.90
72865;DHT22;61000;48.120;11.548;2022-12-20T13:01:03;7.40;99.90
72865;DHT22;61000;48.120;11.548;2022-12-20T13:03:38;7.40;99.90
72865;DHT22;61000;48.120;11.548;2022-12-20T13:06:49;7.40;99.90
72865;DHT22;61000;48.120;11.548;2022-12-20T13:09:34;7.40;99.90
72865;DHT22;61000;48.120;11.548;2022-12-20T13:15:47;7.30;99.90
72865;DHT22;61000;48.120;11.548;2022-12-20T13:18:24;7.30;99.90
72865;DHT22;61000;48.120;11.548;2022-12-20T13:21:35;7.20;99.90
72865;DHT22;61000;48.120;11.548;2022-12-20T13:30:23;7.10;99.90
72865;DHT22;61000;48.120;11.548;2022-12-20T13:33:01;7.10;99.90
72865;DHT22;61000;48.120;11.548;2022-12-20T13:35:46;7.10;99.90
72865;DHT22;61000;48.120;11.548;2022-12-20T13:38:50;7.00;99.90
72865;DHT22;61000;48.120;11.548;2022-12-20T13:41:36;7.00;99.90
72865;DHT22;61000;48.120;11.548;2022-12-20T13:44:34;7.00;99.90
72865;DHT22;61000;48.120;11.548;2022-12-20T13:47:09;7.00;99.90
72865;DHT22;61000;48.120;11.548;2022-12-20T13:49:39;7.00;99.90
72865;DHT22;61000;48.120;11.548;2022-12-20T13:52:21;7.00;99.90
72865;DHT22;61000;48.120;11.548;2022-12-20T13:54:52;6.90;99.90
72865;DHT22;61000;48.120;11.548;2022-12-20T13:57:25;6.90;99.90
72865;DHT22;61000;48.120;11.548;2022-12-20T13:59:56;6.90;99.90
72865;DHT22;61000;48.120;11.548;2022-12-20T14:02:28;6.80;99.90
72865;DHT22;61000;48.120;11.548;2022-12-20T14:04:58;6.80;99.90
72865;DHT22;61000;48.120;11.548;2022-12-20T14:07:27;6.80;99.90
72865;DHT22;61000;48.120;11.548;2022-12-20T14:09:57;6.80;99.90
72865;DHT22;61000;48.120;11.548;2022-12-20T14:12:24;6.90;99.90
72865;DHT22;61000;48.120;11.548;2022-12-20T14:14:51;6.90;99.90
72865;DHT22;61000;48.120;11.548;2022-12-20T14:17:24;6.90;99.90
72865;DHT22;61000;48.120;11.548;2022-12-20T14:20:12;7.00;99.90
72865;DHT22;61000;48.120;11.548;2022-12-20T14:22:41;7.10;99.90
72865;DHT22;61000;48.120;11.548;2022-12-20T14:25:13;7.10;99.90
72865;DHT22;61000;48.120;11.548;2022-12-20T14:27:42;7.20;99.90
72865;DHT22;61000;48.120;11.548;2022-12-20T14:30:29;7.10;99.90
72865;DHT22;61000;48.120;11.548;2022-12-20T14:32:59;7.10;99.90
72865;DHT22;61000;48.120;11.548;2022-12-20T14:35:27;7.10;99.90
72865;DHT22;61000;48.120;11.548;2022-12-20T14:37:56;7.00;99.90
72865;DHT22;61000;48.120;11.548;2022-12-20T14:40:25;7.00;99.90
72865;DHT22;61000;48.120;11.548;2022-12-20T14:42:52;7.00;99.90
72865;DHT22;61000;48.120;11.548;2022-12-20T14:45:22;6.80;99.90
72865;DHT22;61000;48.120;11.548;2022-12-20T14:48:03;6.80;99.90
72865;DHT22;61000;48.120;11.548;2022-12-20T14:50:33;6.70;99.90
72865;DHT22;61000;48.120;11.548;2022-12-20T14:53:01;6.70;99.90
72865;DHT22;61000;48.120;11.548;2022-12-20T14:55:33;6.70;99.90
72865;DHT22;61000;48.120;11.548;2022-12-20T14:58:20;6.60;99.90
72865;DHT22;61000;48.120;11.548;2022-12-20T15:00:55;6.60;99.90
72865;DHT22;61000;48.120;11.548;2022-12-20T15:03:24;6.50;99.90
72865;DHT22;61000;48.120;11.548;2022-12-20T15:05:51;6.50;99.90
72865;DHT22;61000;48.120;11.548;2022-12-20T15:08:22;6.50;99.90
72865;DHT22;61000;48.120;11.548;2022-12-20T15:11:00;6.60;99.90
72865;DHT22;61000;48.120;11.548;2022-12-20T15:13:31;6.40;99.90
72865;DHT22;61000;48.120;11.548;2022-12-20T15:15:59;6.30;99.90
72865;DHT22;61000;48.120;11.548;2022-12-20T15:18:30;6.30;99.90
72865;DHT22;61000;48.120;11.548;2022-12-20T15:21:02;6.30;99.90
72865;DHT22;61000;48.120;11.548;2022-12-20T15:23:29;6.20;99.90
72865;DHT22;61000;48.120;11.548;2022-12-20T15:25:56;6.30;99.90
72865;DHT22;61000;48.120;11.548;2022-12-20T15:28:24;6.10;99.90
72865;DHT22;61000;48.120;11.548;2022-12-20T15:30:52;6.00;99.90
72865;DHT22;61000;48.120;11.548;2022-12-20T15:33:22;5.90;99.90
72865;DHT22;61000;48.120;11.548;2022-12-20T15:35:51;5.80;99.90
72865;DHT22;61000;48.120;11.548;2022-12-20T15:38:20;5.90;99.90
72865;DHT22;61000;48.120;11.548;2022-12-20T15:40:51;5.70;99.90
72865;DHT22;61000;48.120;11.548;2022-12-20T15:43:20;5.70;99.90
72865;DHT22;61000;48.120;11.548;2022-12-20T15:45:50;5.70;99.90
72865;DHT22;61000;48.120;11.548;2022-12-20T15:48:19;5.60;99.90
72865;DHT22;61000;48.120;11.548;2022-12-20T15:50:52;5.60;99.90
72865;DHT22;61000;48.120;11.548;2022-12-20T15:53:21;5.60;99.90
72865;DHT22;61000;48.120;11.548;2022-12-20T15:55:50;5.60;99.90
72865;DHT22;61000;48.120;11.548;2022-12-20T15:58:17;5.90;99.90
72865;DHT22;61000;48.120;11.548;2022-12-20T16:00:45;5.60;99.90
72865;DHT22;61000;48.120;11.548;2022-12-20T16:03:17;5.50;99.90
72865;DHT22;61000;48.120;11.548;2022-12-20T16:05:48;5.50;99.90
72865;DHT22;61000;48.120;11.548;2022-12-20T16:08:17;6.00;99.90
72865;DHT22;61000;48.120;11.548;2022-12-20T16:10:44;5.50;99.90
72865;DHT22;61000;48.120;11.548;2022-12-20T16:13:13;5.40;99.90